<?xml version="1.0" encoding="UTF-8" standalone="no" ?>
<gpx xmlns="http://www.topografix.com/GPX/1/1" xmlns:xsi="http://www.w3.org/2001/XMLSchema-instance" xsi:schemaLocation="http://www.topografix.com/GPX/1/1 http://www.topografix.com/GPX/1/1/gpx.xsd" version="1.1" creator="VisuGPX - https://www.visugpx.com">
  <metadata>
    <name>2014-12-24 La Grande Sure par le couloir de Jusson</name>
    <desc><![CDATA[Chartreuse, Grande Sure, Jusson, Pas de la Miséricorde, Course à pied, La Velouse, ]]></desc>
  </metadata>
  <trk>
    <name><![CDATA[Jusson]]></name>
    <trkseg>
      <trkpt lat="45.32584" lon="5.67918">
        <ele>774</ele>
        <time>2014-12-24T13:41:08Z</time>
      </trkpt>
      <trkpt lat="45.32584" lon="5.6792">
        <ele>774</ele>
        <time>2014-12-24T13:41:13Z</time>
      </trkpt>
      <trkpt lat="45.32584" lon="5.6792">
        <ele>774</ele>
        <time>2014-12-24T13:41:42Z</time>
      </trkpt>
      <trkpt lat="45.32584" lon="5.6792">
        <ele>774</ele>
        <time>2014-12-24T13:41:43Z</time>
      </trkpt>
      <trkpt lat="45.32584" lon="5.6792">
        <ele>774</ele>
        <time>2014-12-24T13:41:49Z</time>
      </trkpt>
      <trkpt lat="45.32584" lon="5.6792">
        <ele>774</ele>
        <time>2014-12-24T13:41:57Z</time>
      </trkpt>
      <trkpt lat="45.32584" lon="5.6792">
        <ele>774</ele>
        <time>2014-12-24T13:41:58Z</time>
      </trkpt>
      <trkpt lat="45.32584" lon="5.6792">
        <ele>774</ele>
        <time>2014-12-24T13:42:09Z</time>
      </trkpt>
      <trkpt lat="45.32585" lon="5.6792">
        <ele>774</ele>
        <time>2014-12-24T13:42:15Z</time>
      </trkpt>
      <trkpt lat="45.32582" lon="5.67921">
        <ele>774</ele>
        <time>2014-12-24T13:42:50Z</time>
      </trkpt>
      <trkpt lat="45.32581" lon="5.67925">
        <ele>774</ele>
        <time>2014-12-24T13:42:56Z</time>
      </trkpt>
      <trkpt lat="45.3257" lon="5.6794">
        <ele>763.413182817</ele>
        <time>2014-12-24T13:43:07Z</time>
      </trkpt>
      <trkpt lat="45.32569" lon="5.67948">
        <ele>763.413182817</ele>
        <time>2014-12-24T13:43:08Z</time>
      </trkpt>
      <trkpt lat="45.32627" lon="5.67926">
        <ele>776.091110093</ele>
        <time>2014-12-24T13:44:06Z</time>
      </trkpt>
      <trkpt lat="45.3263" lon="5.67919">
        <ele>776.091110093</ele>
        <time>2014-12-24T13:44:16Z</time>
      </trkpt>
      <trkpt lat="45.32631" lon="5.67918">
        <ele>776.091110093</ele>
        <time>2014-12-24T13:44:19Z</time>
      </trkpt>
      <trkpt lat="45.32631" lon="5.67914">
        <ele>783.694570823</ele>
        <time>2014-12-24T13:44:26Z</time>
      </trkpt>
      <trkpt lat="45.32631" lon="5.67913">
        <ele>783.694570823</ele>
        <time>2014-12-24T13:44:30Z</time>
      </trkpt>
      <trkpt lat="45.32631" lon="5.67913">
        <ele>783.694570823</ele>
        <time>2014-12-24T13:44:34Z</time>
      </trkpt>
      <trkpt lat="45.32631" lon="5.67913">
        <ele>783.694570823</ele>
        <time>2014-12-24T13:44:57Z</time>
      </trkpt>
      <trkpt lat="45.32631" lon="5.67913">
        <ele>783.694570823</ele>
        <time>2014-12-24T13:45:00Z</time>
      </trkpt>
      <trkpt lat="45.32642" lon="5.67918">
        <ele>789.207591676</ele>
        <time>2014-12-24T13:45:58Z</time>
      </trkpt>
      <trkpt lat="45.32654" lon="5.6791">
        <ele>794.813856853</ele>
        <time>2014-12-24T13:46:07Z</time>
      </trkpt>
      <trkpt lat="45.32744" lon="5.67914">
        <ele>809.014958161</ele>
        <time>2014-12-24T13:48:06Z</time>
      </trkpt>
      <trkpt lat="45.32747" lon="5.67912">
        <ele>809.014958161</ele>
        <time>2014-12-24T13:48:11Z</time>
      </trkpt>
      <trkpt lat="45.32774" lon="5.67944">
        <ele>821.114128121</ele>
        <time>2014-12-24T13:49:06Z</time>
      </trkpt>
      <trkpt lat="45.32777" lon="5.67943">
        <ele>821.114128121</ele>
        <time>2014-12-24T13:49:11Z</time>
      </trkpt>
      <trkpt lat="45.32788" lon="5.67936">
        <ele>832.459004007</ele>
        <time>2014-12-24T13:49:15Z</time>
      </trkpt>
      <trkpt lat="45.32791" lon="5.67937">
        <ele>832.459004007</ele>
        <time>2014-12-24T13:49:24Z</time>
      </trkpt>
      <trkpt lat="45.32817" lon="5.67935">
        <ele>843.25594437</ele>
        <time>2014-12-24T13:49:38Z</time>
      </trkpt>
      <trkpt lat="45.32842" lon="5.67938">
        <ele>852.100074083</ele>
        <time>2014-12-24T13:50:11Z</time>
      </trkpt>
      <trkpt lat="45.32855" lon="5.67966">
        <ele>863.168197621</ele>
        <time>2014-12-24T13:51:08Z</time>
      </trkpt>
      <trkpt lat="45.32906" lon="5.6795">
        <ele>874.261560777</ele>
        <time>2014-12-24T13:52:05Z</time>
      </trkpt>
      <trkpt lat="45.32908" lon="5.67946">
        <ele>874.261560777</ele>
        <time>2014-12-24T13:53:06Z</time>
      </trkpt>
      <trkpt lat="45.32908" lon="5.67949">
        <ele>874.261560777</ele>
        <time>2014-12-24T13:53:08Z</time>
      </trkpt>
      <trkpt lat="45.32928" lon="5.67963">
        <ele>889.531456976</ele>
        <time>2014-12-24T13:54:08Z</time>
      </trkpt>
      <trkpt lat="45.32925" lon="5.67989">
        <ele>901.400844702</ele>
        <time>2014-12-24T13:54:23Z</time>
      </trkpt>
      <trkpt lat="45.32957" lon="5.6799">
        <ele>915.625949683</ele>
        <time>2014-12-24T13:55:23Z</time>
      </trkpt>
      <trkpt lat="45.32956" lon="5.67992">
        <ele>915.625949683</ele>
        <time>2014-12-24T13:55:28Z</time>
      </trkpt>
      <trkpt lat="45.32955" lon="5.67992">
        <ele>915.625949683</ele>
        <time>2014-12-24T13:55:33Z</time>
      </trkpt>
      <trkpt lat="45.32955" lon="5.67992">
        <ele>915.625949683</ele>
        <time>2014-12-24T13:55:38Z</time>
      </trkpt>
      <trkpt lat="45.32955" lon="5.67992">
        <ele>915.625949683</ele>
        <time>2014-12-24T13:55:43Z</time>
      </trkpt>
      <trkpt lat="45.32955" lon="5.67992">
        <ele>915.625949683</ele>
        <time>2014-12-24T13:55:48Z</time>
      </trkpt>
      <trkpt lat="45.32955" lon="5.67992">
        <ele>915.625949683</ele>
        <time>2014-12-24T13:55:53Z</time>
      </trkpt>
      <trkpt lat="45.32955" lon="5.67992">
        <ele>915.625949683</ele>
        <time>2014-12-24T13:55:58Z</time>
      </trkpt>
      <trkpt lat="45.32955" lon="5.67992">
        <ele>915.625949683</ele>
        <time>2014-12-24T13:56:03Z</time>
      </trkpt>
      <trkpt lat="45.32955" lon="5.67992">
        <ele>915.625949683</ele>
        <time>2014-12-24T13:56:11Z</time>
      </trkpt>
      <trkpt lat="45.3295" lon="5.68017">
        <ele>926.333237293</ele>
        <time>2014-12-24T13:56:33Z</time>
      </trkpt>
      <trkpt lat="45.3295" lon="5.68021">
        <ele>926.333237293</ele>
        <time>2014-12-24T13:56:42Z</time>
      </trkpt>
      <trkpt lat="45.32955" lon="5.68023">
        <ele>926.333237293</ele>
        <time>2014-12-24T13:56:50Z</time>
      </trkpt>
      <trkpt lat="45.32963" lon="5.68026">
        <ele>937.142052052</ele>
        <time>2014-12-24T13:56:58Z</time>
      </trkpt>
      <trkpt lat="45.32969" lon="5.68045">
        <ele>947.393395739</ele>
        <time>2014-12-24T13:57:23Z</time>
      </trkpt>
      <trkpt lat="45.32973" lon="5.68043">
        <ele>947.393395739</ele>
        <time>2014-12-24T13:57:33Z</time>
      </trkpt>
      <trkpt lat="45.32978" lon="5.68051">
        <ele>957.150902856</ele>
        <time>2014-12-24T13:57:46Z</time>
      </trkpt>
      <trkpt lat="45.32986" lon="5.68051">
        <ele>957.150902856</ele>
        <time>2014-12-24T13:57:50Z</time>
      </trkpt>
      <trkpt lat="45.32995" lon="5.68059">
        <ele>967.573065457</ele>
        <time>2014-12-24T13:58:00Z</time>
      </trkpt>
      <trkpt lat="45.33003" lon="5.68062">
        <ele>967.573065457</ele>
        <time>2014-12-24T13:58:05Z</time>
      </trkpt>
      <trkpt lat="45.33009" lon="5.6806">
        <ele>977.03871539</ele>
        <time>2014-12-24T13:58:11Z</time>
      </trkpt>
      <trkpt lat="45.33015" lon="5.6806">
        <ele>977.03871539</ele>
        <time>2014-12-24T13:58:15Z</time>
      </trkpt>
      <trkpt lat="45.33021" lon="5.6806">
        <ele>985.204277715</ele>
        <time>2014-12-24T13:58:21Z</time>
      </trkpt>
      <trkpt lat="45.33024" lon="5.68059">
        <ele>985.204277715</ele>
        <time>2014-12-24T13:58:26Z</time>
      </trkpt>
      <trkpt lat="45.33026" lon="5.68068">
        <ele>991.32383902</ele>
        <time>2014-12-24T13:58:28Z</time>
      </trkpt>
      <trkpt lat="45.33031" lon="5.68081">
        <ele>997.257704319</ele>
        <time>2014-12-24T13:58:57Z</time>
      </trkpt>
      <trkpt lat="45.33046" lon="5.68095">
        <ele>1002.88461533</ele>
        <time>2014-12-24T13:59:23Z</time>
      </trkpt>
      <trkpt lat="45.33045" lon="5.68096">
        <ele>1002.88461533</ele>
        <time>2014-12-24T13:59:32Z</time>
      </trkpt>
      <trkpt lat="45.33041" lon="5.68114">
        <ele>1008.958408264</ele>
        <time>2014-12-24T13:59:54Z</time>
      </trkpt>
      <trkpt lat="45.33041" lon="5.68116">
        <ele>1008.958408264</ele>
        <time>2014-12-24T13:59:58Z</time>
      </trkpt>
      <trkpt lat="45.33041" lon="5.68117">
        <ele>1008.958408264</ele>
        <time>2014-12-24T14:00:03Z</time>
      </trkpt>
      <trkpt lat="45.33041" lon="5.68117">
        <ele>1008.958408264</ele>
        <time>2014-12-24T14:00:08Z</time>
      </trkpt>
      <trkpt lat="45.33041" lon="5.68117">
        <ele>1008.958408264</ele>
        <time>2014-12-24T14:00:13Z</time>
      </trkpt>
      <trkpt lat="45.33041" lon="5.68117">
        <ele>1008.958408264</ele>
        <time>2014-12-24T14:00:18Z</time>
      </trkpt>
      <trkpt lat="45.33041" lon="5.68117">
        <ele>1008.958408264</ele>
        <time>2014-12-24T14:00:23Z</time>
      </trkpt>
      <trkpt lat="45.33041" lon="5.68117">
        <ele>1008.958408264</ele>
        <time>2014-12-24T14:00:28Z</time>
      </trkpt>
      <trkpt lat="45.33041" lon="5.68117">
        <ele>1008.958408264</ele>
        <time>2014-12-24T14:00:36Z</time>
      </trkpt>
      <trkpt lat="45.33035" lon="5.68145">
        <ele>1014.151369031</ele>
        <time>2014-12-24T14:00:57Z</time>
      </trkpt>
      <trkpt lat="45.33032" lon="5.68149">
        <ele>1014.151369031</ele>
        <time>2014-12-24T14:00:58Z</time>
      </trkpt>
      <trkpt lat="45.33032" lon="5.68149">
        <ele>1014.151369031</ele>
        <time>2014-12-24T14:01:07Z</time>
      </trkpt>
      <trkpt lat="45.3301" lon="5.68156">
        <ele>1021.229031123</ele>
        <time>2014-12-24T14:01:29Z</time>
      </trkpt>
      <trkpt lat="45.32989" lon="5.68156">
        <ele>1028.333679494</ele>
        <time>2014-12-24T14:01:43Z</time>
      </trkpt>
      <trkpt lat="45.3298" lon="5.68149">
        <ele>1036.018190951</ele>
        <time>2014-12-24T14:02:20Z</time>
      </trkpt>
      <trkpt lat="45.32974" lon="5.68125">
        <ele>1042.426082485</ele>
        <time>2014-12-24T14:02:44Z</time>
      </trkpt>
      <trkpt lat="45.32974" lon="5.68125">
        <ele>1042.426082485</ele>
        <time>2014-12-24T14:02:48Z</time>
      </trkpt>
      <trkpt lat="45.32974" lon="5.68125">
        <ele>1042.426082485</ele>
        <time>2014-12-24T14:02:53Z</time>
      </trkpt>
      <trkpt lat="45.32974" lon="5.68125">
        <ele>1042.426082485</ele>
        <time>2014-12-24T14:02:58Z</time>
      </trkpt>
      <trkpt lat="45.32974" lon="5.68125">
        <ele>1042.426082485</ele>
        <time>2014-12-24T14:03:03Z</time>
      </trkpt>
      <trkpt lat="45.32974" lon="5.68125">
        <ele>1042.426082485</ele>
        <time>2014-12-24T14:03:09Z</time>
      </trkpt>
      <trkpt lat="45.32974" lon="5.68125">
        <ele>1042.426082485</ele>
        <time>2014-12-24T14:03:13Z</time>
      </trkpt>
      <trkpt lat="45.32974" lon="5.68125">
        <ele>1042.426082485</ele>
        <time>2014-12-24T14:03:18Z</time>
      </trkpt>
      <trkpt lat="45.32974" lon="5.68125">
        <ele>1042.426082485</ele>
        <time>2014-12-24T14:03:23Z</time>
      </trkpt>
      <trkpt lat="45.32974" lon="5.68126">
        <ele>1042.426082485</ele>
        <time>2014-12-24T14:03:30Z</time>
      </trkpt>
      <trkpt lat="45.3295" lon="5.68136">
        <ele>1049.319431539</ele>
        <time>2014-12-24T14:03:54Z</time>
      </trkpt>
      <trkpt lat="45.32943" lon="5.68137">
        <ele>1049.319431539</ele>
        <time>2014-12-24T14:04:00Z</time>
      </trkpt>
      <trkpt lat="45.32942" lon="5.68137">
        <ele>1049.319431539</ele>
        <time>2014-12-24T14:04:06Z</time>
      </trkpt>
      <trkpt lat="45.32938" lon="5.6814">
        <ele>1055.967676864</ele>
        <time>2014-12-24T14:05:00Z</time>
      </trkpt>
      <trkpt lat="45.32892" lon="5.68189">
        <ele>1063.639190279</ele>
        <time>2014-12-24T14:05:20Z</time>
      </trkpt>
      <trkpt lat="45.32892" lon="5.68189">
        <ele>1063.639190279</ele>
        <time>2014-12-24T14:05:23Z</time>
      </trkpt>
      <trkpt lat="45.32892" lon="5.68189">
        <ele>1063.639190279</ele>
        <time>2014-12-24T14:05:28Z</time>
      </trkpt>
      <trkpt lat="45.32892" lon="5.68189">
        <ele>1063.639190279</ele>
        <time>2014-12-24T14:05:33Z</time>
      </trkpt>
      <trkpt lat="45.32892" lon="5.68189">
        <ele>1063.639190279</ele>
        <time>2014-12-24T14:05:38Z</time>
      </trkpt>
      <trkpt lat="45.32892" lon="5.68189">
        <ele>1063.639190279</ele>
        <time>2014-12-24T14:05:43Z</time>
      </trkpt>
      <trkpt lat="45.32892" lon="5.68189">
        <ele>1063.639190279</ele>
        <time>2014-12-24T14:05:48Z</time>
      </trkpt>
      <trkpt lat="45.32892" lon="5.68189">
        <ele>1063.639190279</ele>
        <time>2014-12-24T14:05:53Z</time>
      </trkpt>
      <trkpt lat="45.32892" lon="5.68189">
        <ele>1063.639190279</ele>
        <time>2014-12-24T14:05:58Z</time>
      </trkpt>
      <trkpt lat="45.32892" lon="5.68189">
        <ele>1063.639190279</ele>
        <time>2014-12-24T14:06:03Z</time>
      </trkpt>
      <trkpt lat="45.32874" lon="5.68224">
        <ele>1071.430283713</ele>
        <time>2014-12-24T14:06:45Z</time>
      </trkpt>
      <trkpt lat="45.32812" lon="5.68255">
        <ele>1081.716720216</ele>
        <time>2014-12-24T14:08:08Z</time>
      </trkpt>
      <trkpt lat="45.32789" lon="5.68326">
        <ele>1095.473487659</ele>
        <time>2014-12-24T14:10:05Z</time>
      </trkpt>
      <trkpt lat="45.32799" lon="5.68356">
        <ele>1109.934822852</ele>
        <time>2014-12-24T14:11:05Z</time>
      </trkpt>
      <trkpt lat="45.32754" lon="5.68393">
        <ele>1124.329698003</ele>
        <time>2014-12-24T14:11:55Z</time>
      </trkpt>
      <trkpt lat="45.32747" lon="5.68392">
        <ele>1124.329698003</ele>
        <time>2014-12-24T14:11:58Z</time>
      </trkpt>
      <trkpt lat="45.32731" lon="5.68405">
        <ele>1137.923660246</ele>
        <time>2014-12-24T14:12:23Z</time>
      </trkpt>
      <trkpt lat="45.3273" lon="5.68405">
        <ele>1137.923660246</ele>
        <time>2014-12-24T14:12:28Z</time>
      </trkpt>
      <trkpt lat="45.3273" lon="5.68405">
        <ele>1137.923660246</ele>
        <time>2014-12-24T14:12:33Z</time>
      </trkpt>
      <trkpt lat="45.3273" lon="5.68405">
        <ele>1137.923660246</ele>
        <time>2014-12-24T14:12:38Z</time>
      </trkpt>
      <trkpt lat="45.3273" lon="5.68405">
        <ele>1137.923660246</ele>
        <time>2014-12-24T14:12:43Z</time>
      </trkpt>
      <trkpt lat="45.3273" lon="5.68405">
        <ele>1137.923660246</ele>
        <time>2014-12-24T14:12:48Z</time>
      </trkpt>
      <trkpt lat="45.3273" lon="5.68405">
        <ele>1137.923660246</ele>
        <time>2014-12-24T14:13:00Z</time>
      </trkpt>
      <trkpt lat="45.32739" lon="5.68399">
        <ele>1149.730420901</ele>
        <time>2014-12-24T14:13:05Z</time>
      </trkpt>
      <trkpt lat="45.32742" lon="5.68395">
        <ele>1149.730420901</ele>
        <time>2014-12-24T14:13:12Z</time>
      </trkpt>
      <trkpt lat="45.32758" lon="5.68407">
        <ele>1161.151075593</ele>
        <time>2014-12-24T14:13:19Z</time>
      </trkpt>
      <trkpt lat="45.3276" lon="5.68407">
        <ele>1161.151075593</ele>
        <time>2014-12-24T14:13:20Z</time>
      </trkpt>
      <trkpt lat="45.32789" lon="5.68435">
        <ele>1172.491118506</ele>
        <time>2014-12-24T14:14:27Z</time>
      </trkpt>
      <trkpt lat="45.32815" lon="5.68477">
        <ele>1187.138424858</ele>
        <time>2014-12-24T14:17:05Z</time>
      </trkpt>
      <trkpt lat="45.32822" lon="5.68488">
        <ele>1201.011146842</ele>
        <time>2014-12-24T14:17:35Z</time>
      </trkpt>
      <trkpt lat="45.32824" lon="5.68491">
        <ele>1201.011146842</ele>
        <time>2014-12-24T14:18:06Z</time>
      </trkpt>
      <trkpt lat="45.32829" lon="5.68495">
        <ele>1201.011146842</ele>
        <time>2014-12-24T14:18:24Z</time>
      </trkpt>
      <trkpt lat="45.32834" lon="5.68502">
        <ele>1215.925674609</ele>
        <time>2014-12-24T14:18:49Z</time>
      </trkpt>
      <trkpt lat="45.32833" lon="5.68501">
        <ele>1215.925674609</ele>
        <time>2014-12-24T14:18:55Z</time>
      </trkpt>
      <trkpt lat="45.32844" lon="5.68519">
        <ele>1229.845633097</ele>
        <time>2014-12-24T14:20:06Z</time>
      </trkpt>
      <trkpt lat="45.32852" lon="5.68519">
        <ele>1229.845633097</ele>
        <time>2014-12-24T14:20:28Z</time>
      </trkpt>
      <trkpt lat="45.32888" lon="5.68516">
        <ele>1240.418236191</ele>
        <time>2014-12-24T14:22:06Z</time>
      </trkpt>
      <trkpt lat="45.32889" lon="5.68513">
        <ele>1240.418236191</ele>
        <time>2014-12-24T14:22:23Z</time>
      </trkpt>
      <trkpt lat="45.32889" lon="5.68513">
        <ele>1240.418236191</ele>
        <time>2014-12-24T14:22:38Z</time>
      </trkpt>
      <trkpt lat="45.3289" lon="5.68509">
        <ele>1240.418236191</ele>
        <time>2014-12-24T14:22:56Z</time>
      </trkpt>
      <trkpt lat="45.3289" lon="5.68507">
        <ele>1240.418236191</ele>
        <time>2014-12-24T14:23:06Z</time>
      </trkpt>
      <trkpt lat="45.32889" lon="5.68491">
        <ele>1248.47432448</ele>
        <time>2014-12-24T14:24:23Z</time>
      </trkpt>
      <trkpt lat="45.32894" lon="5.68481">
        <ele>1248.47432448</ele>
        <time>2014-12-24T14:25:07Z</time>
      </trkpt>
      <trkpt lat="45.32897" lon="5.68476">
        <ele>1253.599404204</ele>
        <time>2014-12-24T14:25:23Z</time>
      </trkpt>
      <trkpt lat="45.32897" lon="5.68476">
        <ele>1253.599404204</ele>
        <time>2014-12-24T14:25:36Z</time>
      </trkpt>
      <trkpt lat="45.32905" lon="5.68483">
        <ele>1254.972949715</ele>
        <time>2014-12-24T14:26:05Z</time>
      </trkpt>
      <trkpt lat="45.32917" lon="5.68473">
        <ele>1254.874127379</ele>
        <time>2014-12-24T14:26:56Z</time>
      </trkpt>
      <trkpt lat="45.32918" lon="5.68473">
        <ele>1254.874127379</ele>
        <time>2014-12-24T14:27:00Z</time>
      </trkpt>
      <trkpt lat="45.3292" lon="5.68474">
        <ele>1254.874127379</ele>
        <time>2014-12-24T14:27:06Z</time>
      </trkpt>
      <trkpt lat="45.32925" lon="5.68471">
        <ele>1254.874127379</ele>
        <time>2014-12-24T14:27:52Z</time>
      </trkpt>
      <trkpt lat="45.3292" lon="5.68469">
        <ele>1254.059735742</ele>
        <time>2014-12-24T14:28:00Z</time>
      </trkpt>
      <trkpt lat="45.3292" lon="5.68469">
        <ele>1254.059735742</ele>
        <time>2014-12-24T14:28:07Z</time>
      </trkpt>
      <trkpt lat="45.32915" lon="5.68468">
        <ele>1254.059735742</ele>
        <time>2014-12-24T14:28:13Z</time>
      </trkpt>
      <trkpt lat="45.32903" lon="5.68458">
        <ele>1253.682697082</ele>
        <time>2014-12-24T14:28:28Z</time>
      </trkpt>
      <trkpt lat="45.32903" lon="5.68458">
        <ele>1253.682697082</ele>
        <time>2014-12-24T14:28:28Z</time>
      </trkpt>
      <trkpt lat="45.3288" lon="5.68449">
        <ele>1253.293679679</ele>
        <time>2014-12-24T14:29:07Z</time>
      </trkpt>
      <trkpt lat="45.32867" lon="5.68456">
        <ele>1251.724430276</ele>
        <time>2014-12-24T14:29:28Z</time>
      </trkpt>
      <trkpt lat="45.32851" lon="5.68452">
        <ele>1250.308911989</ele>
        <time>2014-12-24T14:30:00Z</time>
      </trkpt>
      <trkpt lat="45.32819" lon="5.68459">
        <ele>1247.26936966</ele>
        <time>2014-12-24T14:30:46Z</time>
      </trkpt>
      <trkpt lat="45.32813" lon="5.68461">
        <ele>1247.26936966</ele>
        <time>2014-12-24T14:30:51Z</time>
      </trkpt>
      <trkpt lat="45.32805" lon="5.68457">
        <ele>1244.571462209</ele>
        <time>2014-12-24T14:31:06Z</time>
      </trkpt>
      <trkpt lat="45.32784" lon="5.6847">
        <ele>1236.100643474</ele>
        <time>2014-12-24T14:32:57Z</time>
      </trkpt>
      <trkpt lat="45.32784" lon="5.68474">
        <ele>1236.100643474</ele>
        <time>2014-12-24T14:33:00Z</time>
      </trkpt>
      <trkpt lat="45.32786" lon="5.68483">
        <ele>1227.592467665</ele>
        <time>2014-12-24T14:33:10Z</time>
      </trkpt>
      <trkpt lat="45.32758" lon="5.68708">
        <ele>1226.675018466</ele>
        <time>2014-12-24T14:36:05Z</time>
      </trkpt>
      <trkpt lat="45.32719" lon="5.68822">
        <ele>1226.824376238</ele>
        <time>2014-12-24T14:38:06Z</time>
      </trkpt>
      <trkpt lat="45.32715" lon="5.6884">
        <ele>1227.235338747</ele>
        <time>2014-12-24T14:38:09Z</time>
      </trkpt>
      <trkpt lat="45.32676" lon="5.69014">
        <ele>1231.88770708</ele>
        <time>2014-12-24T14:40:06Z</time>
      </trkpt>
      <trkpt lat="45.32663" lon="5.69028">
        <ele>1236.91453447</ele>
        <time>2014-12-24T14:40:14Z</time>
      </trkpt>
      <trkpt lat="45.32661" lon="5.69031">
        <ele>1236.91453447</ele>
        <time>2014-12-24T14:40:18Z</time>
      </trkpt>
      <trkpt lat="45.32659" lon="5.69038">
        <ele>1236.91453447</ele>
        <time>2014-12-24T14:40:23Z</time>
      </trkpt>
      <trkpt lat="45.32659" lon="5.69038">
        <ele>1236.91453447</ele>
        <time>2014-12-24T14:40:28Z</time>
      </trkpt>
      <trkpt lat="45.32658" lon="5.6904">
        <ele>1241.704756335</ele>
        <time>2014-12-24T14:40:33Z</time>
      </trkpt>
      <trkpt lat="45.32658" lon="5.6904">
        <ele>1241.704756335</ele>
        <time>2014-12-24T14:40:38Z</time>
      </trkpt>
      <trkpt lat="45.32658" lon="5.6904">
        <ele>1241.704756335</ele>
        <time>2014-12-24T14:40:43Z</time>
      </trkpt>
      <trkpt lat="45.32658" lon="5.6904">
        <ele>1241.704756335</ele>
        <time>2014-12-24T14:40:48Z</time>
      </trkpt>
      <trkpt lat="45.32658" lon="5.6904">
        <ele>1241.704756335</ele>
        <time>2014-12-24T14:40:53Z</time>
      </trkpt>
      <trkpt lat="45.32658" lon="5.6904">
        <ele>1241.704756335</ele>
        <time>2014-12-24T14:40:58Z</time>
      </trkpt>
      <trkpt lat="45.32658" lon="5.6904">
        <ele>1241.704756335</ele>
        <time>2014-12-24T14:41:03Z</time>
      </trkpt>
      <trkpt lat="45.32658" lon="5.6904">
        <ele>1241.704756335</ele>
        <time>2014-12-24T14:41:08Z</time>
      </trkpt>
      <trkpt lat="45.32658" lon="5.6904">
        <ele>1241.704756335</ele>
        <time>2014-12-24T14:41:13Z</time>
      </trkpt>
      <trkpt lat="45.32658" lon="5.6904">
        <ele>1241.704756335</ele>
        <time>2014-12-24T14:41:18Z</time>
      </trkpt>
      <trkpt lat="45.32658" lon="5.6904">
        <ele>1241.704756335</ele>
        <time>2014-12-24T14:41:26Z</time>
      </trkpt>
      <trkpt lat="45.3268" lon="5.69095">
        <ele>1242.914943143</ele>
        <time>2014-12-24T14:41:48Z</time>
      </trkpt>
      <trkpt lat="45.32686" lon="5.69105">
        <ele>1243.623026446</ele>
        <time>2014-12-24T14:41:53Z</time>
      </trkpt>
      <trkpt lat="45.32689" lon="5.69126">
        <ele>1244.030307439</ele>
        <time>2014-12-24T14:42:01Z</time>
      </trkpt>
      <trkpt lat="45.32685" lon="5.69225">
        <ele>1244.467588367</ele>
        <time>2014-12-24T14:42:44Z</time>
      </trkpt>
      <trkpt lat="45.32693" lon="5.69249">
        <ele>1244.947708268</ele>
        <time>2014-12-24T14:43:06Z</time>
      </trkpt>
      <trkpt lat="45.32694" lon="5.69284">
        <ele>1246.062775324</ele>
        <time>2014-12-24T14:43:22Z</time>
      </trkpt>
      <trkpt lat="45.32699" lon="5.69315">
        <ele>1247.486062394</ele>
        <time>2014-12-24T14:43:30Z</time>
      </trkpt>
      <trkpt lat="45.32703" lon="5.69325">
        <ele>1247.486062394</ele>
        <time>2014-12-24T14:43:36Z</time>
      </trkpt>
      <trkpt lat="45.32704" lon="5.69327">
        <ele>1248.770409197</ele>
        <time>2014-12-24T14:43:41Z</time>
      </trkpt>
      <trkpt lat="45.32706" lon="5.69334">
        <ele>1248.770409197</ele>
        <time>2014-12-24T14:43:45Z</time>
      </trkpt>
      <trkpt lat="45.32712" lon="5.69345">
        <ele>1249.937413752</ele>
        <time>2014-12-24T14:43:50Z</time>
      </trkpt>
      <trkpt lat="45.32712" lon="5.69354">
        <ele>1249.937413752</ele>
        <time>2014-12-24T14:43:55Z</time>
      </trkpt>
      <trkpt lat="45.32715" lon="5.69366">
        <ele>1252.886712493</ele>
        <time>2014-12-24T14:44:00Z</time>
      </trkpt>
      <trkpt lat="45.32716" lon="5.6937">
        <ele>1252.886712493</ele>
        <time>2014-12-24T14:44:06Z</time>
      </trkpt>
      <trkpt lat="45.32719" lon="5.69381">
        <ele>1256.477504059</ele>
        <time>2014-12-24T14:44:16Z</time>
      </trkpt>
      <trkpt lat="45.32723" lon="5.69423">
        <ele>1261.820307373</ele>
        <time>2014-12-24T14:44:43Z</time>
      </trkpt>
      <trkpt lat="45.32717" lon="5.69474">
        <ele>1266.47231066</ele>
        <time>2014-12-24T14:45:11Z</time>
      </trkpt>
      <trkpt lat="45.32712" lon="5.69511">
        <ele>1271.206118466</ele>
        <time>2014-12-24T14:45:17Z</time>
      </trkpt>
      <trkpt lat="45.32702" lon="5.69587">
        <ele>1275.293083443</ele>
        <time>2014-12-24T14:45:41Z</time>
      </trkpt>
      <trkpt lat="45.327" lon="5.69616">
        <ele>1278.781166477</ele>
        <time>2014-12-24T14:45:47Z</time>
      </trkpt>
      <trkpt lat="45.32713" lon="5.69738">
        <ele>1284.311462966</ele>
        <time>2014-12-24T14:47:00Z</time>
      </trkpt>
      <trkpt lat="45.32698" lon="5.69784">
        <ele>1290.430634679</ele>
        <time>2014-12-24T14:47:23Z</time>
      </trkpt>
      <trkpt lat="45.32682" lon="5.69838">
        <ele>1294.781587826</ele>
        <time>2014-12-24T14:47:52Z</time>
      </trkpt>
      <trkpt lat="45.32659" lon="5.69884">
        <ele>1298.068865812</ele>
        <time>2014-12-24T14:48:04Z</time>
      </trkpt>
      <trkpt lat="45.32648" lon="5.69919">
        <ele>1302.82200087</ele>
        <time>2014-12-24T14:48:28Z</time>
      </trkpt>
      <trkpt lat="45.32648" lon="5.69919">
        <ele>1302.82200087</ele>
        <time>2014-12-24T14:48:33Z</time>
      </trkpt>
      <trkpt lat="45.32648" lon="5.69919">
        <ele>1302.82200087</ele>
        <time>2014-12-24T14:48:38Z</time>
      </trkpt>
      <trkpt lat="45.32648" lon="5.69919">
        <ele>1302.82200087</ele>
        <time>2014-12-24T14:48:43Z</time>
      </trkpt>
      <trkpt lat="45.32648" lon="5.69919">
        <ele>1302.82200087</ele>
        <time>2014-12-24T14:48:48Z</time>
      </trkpt>
      <trkpt lat="45.32648" lon="5.69919">
        <ele>1302.82200087</ele>
        <time>2014-12-24T14:48:53Z</time>
      </trkpt>
      <trkpt lat="45.32648" lon="5.69919">
        <ele>1302.82200087</ele>
        <time>2014-12-24T14:48:58Z</time>
      </trkpt>
      <trkpt lat="45.32648" lon="5.69919">
        <ele>1302.82200087</ele>
        <time>2014-12-24T14:49:03Z</time>
      </trkpt>
      <trkpt lat="45.32648" lon="5.69919">
        <ele>1302.82200087</ele>
        <time>2014-12-24T14:49:08Z</time>
      </trkpt>
      <trkpt lat="45.32648" lon="5.69919">
        <ele>1302.82200087</ele>
        <time>2014-12-24T14:49:13Z</time>
      </trkpt>
      <trkpt lat="45.32648" lon="5.69919">
        <ele>1302.82200087</ele>
        <time>2014-12-24T14:49:18Z</time>
      </trkpt>
      <trkpt lat="45.32678" lon="5.69961">
        <ele>1306.478250479</ele>
        <time>2014-12-24T14:50:00Z</time>
      </trkpt>
      <trkpt lat="45.32686" lon="5.69977">
        <ele>1310.991412342</ele>
        <time>2014-12-24T14:50:06Z</time>
      </trkpt>
      <trkpt lat="45.32684" lon="5.70026">
        <ele>1314.564522584</ele>
        <time>2014-12-24T14:50:18Z</time>
      </trkpt>
      <trkpt lat="45.32678" lon="5.70039">
        <ele>1317.986284913</ele>
        <time>2014-12-24T14:50:23Z</time>
      </trkpt>
      <trkpt lat="45.32679" lon="5.70041">
        <ele>1317.986284913</ele>
        <time>2014-12-24T14:50:28Z</time>
      </trkpt>
      <trkpt lat="45.32685" lon="5.70045">
        <ele>1317.986284913</ele>
        <time>2014-12-24T14:50:33Z</time>
      </trkpt>
      <trkpt lat="45.32682" lon="5.70047">
        <ele>1321.84364854</ele>
        <time>2014-12-24T14:50:38Z</time>
      </trkpt>
      <trkpt lat="45.32676" lon="5.70051">
        <ele>1321.84364854</ele>
        <time>2014-12-24T14:50:43Z</time>
      </trkpt>
      <trkpt lat="45.32678" lon="5.70055">
        <ele>1326.246523324</ele>
        <time>2014-12-24T14:50:48Z</time>
      </trkpt>
      <trkpt lat="45.32678" lon="5.70068">
        <ele>1330.429753366</ele>
        <time>2014-12-24T14:50:53Z</time>
      </trkpt>
      <trkpt lat="45.32671" lon="5.70077">
        <ele>1334.838696908</ele>
        <time>2014-12-24T14:50:58Z</time>
      </trkpt>
      <trkpt lat="45.32672" lon="5.70079">
        <ele>1334.838696908</ele>
        <time>2014-12-24T14:51:03Z</time>
      </trkpt>
      <trkpt lat="45.32674" lon="5.70082">
        <ele>1334.838696908</ele>
        <time>2014-12-24T14:51:08Z</time>
      </trkpt>
      <trkpt lat="45.32674" lon="5.70086">
        <ele>1334.838696908</ele>
        <time>2014-12-24T14:51:13Z</time>
      </trkpt>
      <trkpt lat="45.32672" lon="5.70097">
        <ele>1337.721767776</ele>
        <time>2014-12-24T14:51:18Z</time>
      </trkpt>
      <trkpt lat="45.32672" lon="5.70099">
        <ele>1337.721767776</ele>
        <time>2014-12-24T14:51:23Z</time>
      </trkpt>
      <trkpt lat="45.32671" lon="5.70098">
        <ele>1337.721767776</ele>
        <time>2014-12-24T14:51:28Z</time>
      </trkpt>
      <trkpt lat="45.32671" lon="5.70097">
        <ele>1337.721767776</ele>
        <time>2014-12-24T14:51:33Z</time>
      </trkpt>
      <trkpt lat="45.32674" lon="5.70094">
        <ele>1337.721767776</ele>
        <time>2014-12-24T14:51:38Z</time>
      </trkpt>
      <trkpt lat="45.32682" lon="5.70051">
        <ele>1340.489299022</ele>
        <time>2014-12-24T14:52:06Z</time>
      </trkpt>
      <trkpt lat="45.32635" lon="5.69938">
        <ele>1341.707723788</ele>
        <time>2014-12-24T14:53:23Z</time>
      </trkpt>
      <trkpt lat="45.32635" lon="5.69937">
        <ele>1341.707723788</ele>
        <time>2014-12-24T14:53:28Z</time>
      </trkpt>
      <trkpt lat="45.32635" lon="5.69936">
        <ele>1341.707723788</ele>
        <time>2014-12-24T14:53:33Z</time>
      </trkpt>
      <trkpt lat="45.3264" lon="5.69943">
        <ele>1341.707723788</ele>
        <time>2014-12-24T14:53:38Z</time>
      </trkpt>
      <trkpt lat="45.32646" lon="5.69954">
        <ele>1343.082286766</ele>
        <time>2014-12-24T14:53:43Z</time>
      </trkpt>
      <trkpt lat="45.3265" lon="5.69962">
        <ele>1343.082286766</ele>
        <time>2014-12-24T14:53:48Z</time>
      </trkpt>
      <trkpt lat="45.32654" lon="5.69967">
        <ele>1344.74996327</ele>
        <time>2014-12-24T14:53:53Z</time>
      </trkpt>
      <trkpt lat="45.32668" lon="5.69971">
        <ele>1345.538583172</ele>
        <time>2014-12-24T14:53:58Z</time>
      </trkpt>
      <trkpt lat="45.32672" lon="5.69976">
        <ele>1345.538583172</ele>
        <time>2014-12-24T14:54:03Z</time>
      </trkpt>
      <trkpt lat="45.32679" lon="5.69984">
        <ele>1346.239731865</ele>
        <time>2014-12-24T14:54:08Z</time>
      </trkpt>
      <trkpt lat="45.32679" lon="5.69987">
        <ele>1346.239731865</ele>
        <time>2014-12-24T14:54:13Z</time>
      </trkpt>
      <trkpt lat="45.32679" lon="5.69985">
        <ele>1346.239731865</ele>
        <time>2014-12-24T14:54:18Z</time>
      </trkpt>
      <trkpt lat="45.32686" lon="5.69977">
        <ele>1346.865733907</ele>
        <time>2014-12-24T14:54:23Z</time>
      </trkpt>
      <trkpt lat="45.3269" lon="5.69976">
        <ele>1346.865733907</ele>
        <time>2014-12-24T14:54:28Z</time>
      </trkpt>
      <trkpt lat="45.32693" lon="5.69976">
        <ele>1346.865733907</ele>
        <time>2014-12-24T14:54:33Z</time>
      </trkpt>
      <trkpt lat="45.32693" lon="5.69978">
        <ele>1346.865733907</ele>
        <time>2014-12-24T14:54:38Z</time>
      </trkpt>
      <trkpt lat="45.32693" lon="5.69982">
        <ele>1348.581960192</ele>
        <time>2014-12-24T14:54:43Z</time>
      </trkpt>
      <trkpt lat="45.32697" lon="5.69987">
        <ele>1348.581960192</ele>
        <time>2014-12-24T14:54:48Z</time>
      </trkpt>
      <trkpt lat="45.327" lon="5.69989">
        <ele>1348.581960192</ele>
        <time>2014-12-24T14:54:53Z</time>
      </trkpt>
      <trkpt lat="45.32702" lon="5.69991">
        <ele>1349.868759555</ele>
        <time>2014-12-24T14:54:58Z</time>
      </trkpt>
      <trkpt lat="45.32702" lon="5.69991">
        <ele>1349.868759555</ele>
        <time>2014-12-24T14:55:03Z</time>
      </trkpt>
      <trkpt lat="45.32701" lon="5.69992">
        <ele>1349.868759555</ele>
        <time>2014-12-24T14:55:08Z</time>
      </trkpt>
      <trkpt lat="45.32702" lon="5.69992">
        <ele>1349.868759555</ele>
        <time>2014-12-24T14:55:13Z</time>
      </trkpt>
      <trkpt lat="45.32706" lon="5.69992">
        <ele>1349.868759555</ele>
        <time>2014-12-24T14:55:18Z</time>
      </trkpt>
      <trkpt lat="45.32713" lon="5.69992">
        <ele>1351.338551882</ele>
        <time>2014-12-24T14:55:23Z</time>
      </trkpt>
      <trkpt lat="45.32715" lon="5.6999">
        <ele>1351.338551882</ele>
        <time>2014-12-24T14:55:28Z</time>
      </trkpt>
      <trkpt lat="45.3272" lon="5.69993">
        <ele>1351.338551882</ele>
        <time>2014-12-24T14:55:33Z</time>
      </trkpt>
      <trkpt lat="45.32726" lon="5.69995">
        <ele>1353.125390718</ele>
        <time>2014-12-24T14:55:42Z</time>
      </trkpt>
      <trkpt lat="45.32748" lon="5.69997">
        <ele>1355.496657344</ele>
        <time>2014-12-24T14:56:05Z</time>
      </trkpt>
      <trkpt lat="45.32754" lon="5.69992">
        <ele>1355.496657344</ele>
        <time>2014-12-24T14:56:10Z</time>
      </trkpt>
      <trkpt lat="45.32775" lon="5.69969">
        <ele>1359.707658374</ele>
        <time>2014-12-24T14:56:53Z</time>
      </trkpt>
      <trkpt lat="45.32784" lon="5.69966">
        <ele>1359.707658374</ele>
        <time>2014-12-24T14:57:02Z</time>
      </trkpt>
      <trkpt lat="45.32802" lon="5.69961">
        <ele>1364.897326599</ele>
        <time>2014-12-24T14:57:53Z</time>
      </trkpt>
      <trkpt lat="45.32806" lon="5.69959">
        <ele>1364.897326599</ele>
        <time>2014-12-24T14:58:00Z</time>
      </trkpt>
      <trkpt lat="45.32836" lon="5.69938">
        <ele>1373.725565178</ele>
        <time>2014-12-24T14:58:53Z</time>
      </trkpt>
      <trkpt lat="45.32836" lon="5.69938">
        <ele>1373.725565178</ele>
        <time>2014-12-24T14:58:58Z</time>
      </trkpt>
      <trkpt lat="45.32836" lon="5.69938">
        <ele>1373.725565178</ele>
        <time>2014-12-24T14:59:03Z</time>
      </trkpt>
      <trkpt lat="45.32836" lon="5.69938">
        <ele>1373.725565178</ele>
        <time>2014-12-24T14:59:08Z</time>
      </trkpt>
      <trkpt lat="45.32836" lon="5.69938">
        <ele>1373.725565178</ele>
        <time>2014-12-24T14:59:13Z</time>
      </trkpt>
      <trkpt lat="45.32836" lon="5.69938">
        <ele>1373.725565178</ele>
        <time>2014-12-24T14:59:18Z</time>
      </trkpt>
      <trkpt lat="45.32836" lon="5.69938">
        <ele>1373.725565178</ele>
        <time>2014-12-24T14:59:23Z</time>
      </trkpt>
      <trkpt lat="45.32854" lon="5.69927">
        <ele>1383.023337817</ele>
        <time>2014-12-24T15:00:00Z</time>
      </trkpt>
      <trkpt lat="45.3289" lon="5.69903">
        <ele>1393.890422546</ele>
        <time>2014-12-24T15:01:06Z</time>
      </trkpt>
      <trkpt lat="45.32968" lon="5.69868">
        <ele>1409.503687756</ele>
        <time>2014-12-24T15:03:04Z</time>
      </trkpt>
      <trkpt lat="45.32969" lon="5.69869">
        <ele>1409.503687756</ele>
        <time>2014-12-24T15:03:18Z</time>
      </trkpt>
      <trkpt lat="45.32971" lon="5.69866">
        <ele>1409.503687756</ele>
        <time>2014-12-24T15:03:23Z</time>
      </trkpt>
      <trkpt lat="45.32972" lon="5.69867">
        <ele>1409.503687756</ele>
        <time>2014-12-24T15:03:28Z</time>
      </trkpt>
      <trkpt lat="45.32971" lon="5.69866">
        <ele>1409.503687756</ele>
        <time>2014-12-24T15:03:33Z</time>
      </trkpt>
      <trkpt lat="45.32971" lon="5.69866">
        <ele>1409.503687756</ele>
        <time>2014-12-24T15:03:38Z</time>
      </trkpt>
      <trkpt lat="45.32971" lon="5.69866">
        <ele>1409.503687756</ele>
        <time>2014-12-24T15:03:43Z</time>
      </trkpt>
      <trkpt lat="45.33027" lon="5.69861">
        <ele>1429.044954374</ele>
        <time>2014-12-24T15:04:58Z</time>
      </trkpt>
      <trkpt lat="45.33026" lon="5.6986">
        <ele>1429.044954374</ele>
        <time>2014-12-24T15:05:06Z</time>
      </trkpt>
      <trkpt lat="45.3306" lon="5.69849">
        <ele>1448.141878456</ele>
        <time>2014-12-24T15:05:51Z</time>
      </trkpt>
      <trkpt lat="45.33078" lon="5.69843">
        <ele>1467.502297842</ele>
        <time>2014-12-24T15:06:23Z</time>
      </trkpt>
      <trkpt lat="45.33084" lon="5.69823">
        <ele>1485.187190427</ele>
        <time>2014-12-24T15:07:00Z</time>
      </trkpt>
      <trkpt lat="45.33069" lon="5.69786">
        <ele>1501.279182954</ele>
        <time>2014-12-24T15:07:27Z</time>
      </trkpt>
      <trkpt lat="45.33057" lon="5.69764">
        <ele>1515.571631142</ele>
        <time>2014-12-24T15:07:50Z</time>
      </trkpt>
      <trkpt lat="45.33047" lon="5.69751">
        <ele>1528.31117365</ele>
        <time>2014-12-24T15:08:10Z</time>
      </trkpt>
      <trkpt lat="45.33044" lon="5.69726">
        <ele>1540.163734536</ele>
        <time>2014-12-24T15:08:23Z</time>
      </trkpt>
      <trkpt lat="45.33064" lon="5.697">
        <ele>1551.317128893</ele>
        <time>2014-12-24T15:08:51Z</time>
      </trkpt>
      <trkpt lat="45.33076" lon="5.69674">
        <ele>1562.092192176</ele>
        <time>2014-12-24T15:09:12Z</time>
      </trkpt>
      <trkpt lat="45.33081" lon="5.69659">
        <ele>1571.635055276</ele>
        <time>2014-12-24T15:09:13Z</time>
      </trkpt>
      <trkpt lat="45.33109" lon="5.69617">
        <ele>1579.735267075</ele>
        <time>2014-12-24T15:10:00Z</time>
      </trkpt>
      <trkpt lat="45.33136" lon="5.69617">
        <ele>1589.661356742</ele>
        <time>2014-12-24T15:10:39Z</time>
      </trkpt>
      <trkpt lat="45.33136" lon="5.69617">
        <ele>1589.661356742</ele>
        <time>2014-12-24T15:10:43Z</time>
      </trkpt>
      <trkpt lat="45.33136" lon="5.69617">
        <ele>1589.661356742</ele>
        <time>2014-12-24T15:10:48Z</time>
      </trkpt>
      <trkpt lat="45.33136" lon="5.69617">
        <ele>1589.661356742</ele>
        <time>2014-12-24T15:10:53Z</time>
      </trkpt>
      <trkpt lat="45.33139" lon="5.6962">
        <ele>1589.661356742</ele>
        <time>2014-12-24T15:10:59Z</time>
      </trkpt>
      <trkpt lat="45.33141" lon="5.69621">
        <ele>1589.661356742</ele>
        <time>2014-12-24T15:11:07Z</time>
      </trkpt>
      <trkpt lat="45.33152" lon="5.69635">
        <ele>1599.393290145</ele>
        <time>2014-12-24T15:11:10Z</time>
      </trkpt>
      <trkpt lat="45.33157" lon="5.6964">
        <ele>1599.393290145</ele>
        <time>2014-12-24T15:11:15Z</time>
      </trkpt>
      <trkpt lat="45.33161" lon="5.69644">
        <ele>1608.069493844</ele>
        <time>2014-12-24T15:11:20Z</time>
      </trkpt>
      <trkpt lat="45.33197" lon="5.69674">
        <ele>1616.624673899</ele>
        <time>2014-12-24T15:11:43Z</time>
      </trkpt>
      <trkpt lat="45.33207" lon="5.69687">
        <ele>1624.628832982</ele>
        <time>2014-12-24T15:12:00Z</time>
      </trkpt>
      <trkpt lat="45.33228" lon="5.69705">
        <ele>1632.550396332</ele>
        <time>2014-12-24T15:12:25Z</time>
      </trkpt>
      <trkpt lat="45.33234" lon="5.69708">
        <ele>1632.550396332</ele>
        <time>2014-12-24T15:12:35Z</time>
      </trkpt>
      <trkpt lat="45.33235" lon="5.69715">
        <ele>1639.527176969</ele>
        <time>2014-12-24T15:12:44Z</time>
      </trkpt>
      <trkpt lat="45.33242" lon="5.69719">
        <ele>1639.527176969</ele>
        <time>2014-12-24T15:12:50Z</time>
      </trkpt>
      <trkpt lat="45.33254" lon="5.69727">
        <ele>1646.204644175</ele>
        <time>2014-12-24T15:13:06Z</time>
      </trkpt>
      <trkpt lat="45.33266" lon="5.69736">
        <ele>1652.029294371</ele>
        <time>2014-12-24T15:13:08Z</time>
      </trkpt>
      <trkpt lat="45.33405" lon="5.69821">
        <ele>1661.24687912</ele>
        <time>2014-12-24T15:15:06Z</time>
      </trkpt>
      <trkpt lat="45.33413" lon="5.69829">
        <ele>1669.56772929</ele>
        <time>2014-12-24T15:15:16Z</time>
      </trkpt>
      <trkpt lat="45.3344" lon="5.6987">
        <ele>1677.631829565</ele>
        <time>2014-12-24T15:16:08Z</time>
      </trkpt>
      <trkpt lat="45.3347" lon="5.69884">
        <ele>1685.456796305</ele>
        <time>2014-12-24T15:16:50Z</time>
      </trkpt>
      <trkpt lat="45.33471" lon="5.69885">
        <ele>1685.456796305</ele>
        <time>2014-12-24T15:16:53Z</time>
      </trkpt>
      <trkpt lat="45.33471" lon="5.69884">
        <ele>1685.456796305</ele>
        <time>2014-12-24T15:16:58Z</time>
      </trkpt>
      <trkpt lat="45.33471" lon="5.69885">
        <ele>1685.456796305</ele>
        <time>2014-12-24T15:17:03Z</time>
      </trkpt>
      <trkpt lat="45.33471" lon="5.69885">
        <ele>1685.456796305</ele>
        <time>2014-12-24T15:17:10Z</time>
      </trkpt>
      <trkpt lat="45.33471" lon="5.69885">
        <ele>1685.456796305</ele>
        <time>2014-12-24T15:17:17Z</time>
      </trkpt>
      <trkpt lat="45.33477" lon="5.69895">
        <ele>1692.195289048</ele>
        <time>2014-12-24T15:17:21Z</time>
      </trkpt>
      <trkpt lat="45.33482" lon="5.69906">
        <ele>1698.074380461</ele>
        <time>2014-12-24T15:17:25Z</time>
      </trkpt>
      <trkpt lat="45.33483" lon="5.69909">
        <ele>1698.074380461</ele>
        <time>2014-12-24T15:17:30Z</time>
      </trkpt>
      <trkpt lat="45.33483" lon="5.69909">
        <ele>1698.074380461</ele>
        <time>2014-12-24T15:17:34Z</time>
      </trkpt>
      <trkpt lat="45.33528" lon="5.69962">
        <ele>1706.621803799</ele>
        <time>2014-12-24T15:18:42Z</time>
      </trkpt>
      <trkpt lat="45.33537" lon="5.69971">
        <ele>1714.037309992</ele>
        <time>2014-12-24T15:18:50Z</time>
      </trkpt>
      <trkpt lat="45.33543" lon="5.69974">
        <ele>1714.037309992</ele>
        <time>2014-12-24T15:19:06Z</time>
      </trkpt>
      <trkpt lat="45.33545" lon="5.70041">
        <ele>1725.306001104</ele>
        <time>2014-12-24T15:21:06Z</time>
      </trkpt>
      <trkpt lat="45.33556" lon="5.70065">
        <ele>1736.677534438</ele>
        <time>2014-12-24T15:22:26Z</time>
      </trkpt>
      <trkpt lat="45.33553" lon="5.70082">
        <ele>1747.415187446</ele>
        <time>2014-12-24T15:23:05Z</time>
      </trkpt>
      <trkpt lat="45.33544" lon="5.70101">
        <ele>1757.414822979</ele>
        <time>2014-12-24T15:24:05Z</time>
      </trkpt>
      <trkpt lat="45.33519" lon="5.70123">
        <ele>1768.455747791</ele>
        <time>2014-12-24T15:25:06Z</time>
      </trkpt>
      <trkpt lat="45.33571" lon="5.70137">
        <ele>1778.580999026</ele>
        <time>2014-12-24T15:27:00Z</time>
      </trkpt>
      <trkpt lat="45.3357" lon="5.70142">
        <ele>1778.580999026</ele>
        <time>2014-12-24T15:27:06Z</time>
      </trkpt>
      <trkpt lat="45.33564" lon="5.70157">
        <ele>1787.997779835</ele>
        <time>2014-12-24T15:27:51Z</time>
      </trkpt>
      <trkpt lat="45.33562" lon="5.70166">
        <ele>1787.997779835</ele>
        <time>2014-12-24T15:28:06Z</time>
      </trkpt>
      <trkpt lat="45.33561" lon="5.70169">
        <ele>1787.997779835</ele>
        <time>2014-12-24T15:28:11Z</time>
      </trkpt>
      <trkpt lat="45.33562" lon="5.70171">
        <ele>1796.467937522</ele>
        <time>2014-12-24T15:28:15Z</time>
      </trkpt>
      <trkpt lat="45.33563" lon="5.70172">
        <ele>1796.467937522</ele>
        <time>2014-12-24T15:28:20Z</time>
      </trkpt>
      <trkpt lat="45.33561" lon="5.70172">
        <ele>1796.467937522</ele>
        <time>2014-12-24T15:28:25Z</time>
      </trkpt>
      <trkpt lat="45.33561" lon="5.70178">
        <ele>1796.467937522</ele>
        <time>2014-12-24T15:28:43Z</time>
      </trkpt>
      <trkpt lat="45.3356" lon="5.70183">
        <ele>1805.214824673</ele>
        <time>2014-12-24T15:29:07Z</time>
      </trkpt>
      <trkpt lat="45.33558" lon="5.70187">
        <ele>1805.214824673</ele>
        <time>2014-12-24T15:29:23Z</time>
      </trkpt>
      <trkpt lat="45.33552" lon="5.7019">
        <ele>1814.506658324</ele>
        <time>2014-12-24T15:29:55Z</time>
      </trkpt>
      <trkpt lat="45.33548" lon="5.70184">
        <ele>1814.506658324</ele>
        <time>2014-12-24T15:30:07Z</time>
      </trkpt>
      <trkpt lat="45.33548" lon="5.70187">
        <ele>1814.506658324</ele>
        <time>2014-12-24T15:30:17Z</time>
      </trkpt>
      <trkpt lat="45.33551" lon="5.70193">
        <ele>1824.87883584</ele>
        <time>2014-12-24T15:30:29Z</time>
      </trkpt>
      <trkpt lat="45.33555" lon="5.70203">
        <ele>1824.87883584</ele>
        <time>2014-12-24T15:30:58Z</time>
      </trkpt>
      <trkpt lat="45.3355" lon="5.70214">
        <ele>1835.383430876</ele>
        <time>2014-12-24T15:31:26Z</time>
      </trkpt>
      <trkpt lat="45.33545" lon="5.70226">
        <ele>1843.844932081</ele>
        <time>2014-12-24T15:31:43Z</time>
      </trkpt>
      <trkpt lat="45.33544" lon="5.70225">
        <ele>1843.844932081</ele>
        <time>2014-12-24T15:31:54Z</time>
      </trkpt>
      <trkpt lat="45.3354" lon="5.70223">
        <ele>1843.844932081</ele>
        <time>2014-12-24T15:32:06Z</time>
      </trkpt>
      <trkpt lat="45.33533" lon="5.7023">
        <ele>1852.000486013</ele>
        <time>2014-12-24T15:32:23Z</time>
      </trkpt>
      <trkpt lat="45.33533" lon="5.7024">
        <ele>1852.000486013</ele>
        <time>2014-12-24T15:32:51Z</time>
      </trkpt>
      <trkpt lat="45.33532" lon="5.70243">
        <ele>1859.731266962</ele>
        <time>2014-12-24T15:33:06Z</time>
      </trkpt>
      <trkpt lat="45.33531" lon="5.70241">
        <ele>1859.731266962</ele>
        <time>2014-12-24T15:33:09Z</time>
      </trkpt>
      <trkpt lat="45.3353" lon="5.70244">
        <ele>1859.731266962</ele>
        <time>2014-12-24T15:33:36Z</time>
      </trkpt>
      <trkpt lat="45.33534" lon="5.70246">
        <ele>1859.731266962</ele>
        <time>2014-12-24T15:34:00Z</time>
      </trkpt>
      <trkpt lat="45.33534" lon="5.70248">
        <ele>1867.072610904</ele>
        <time>2014-12-24T15:34:27Z</time>
      </trkpt>
      <trkpt lat="45.33541" lon="5.7025">
        <ele>1867.072610904</ele>
        <time>2014-12-24T15:35:25Z</time>
      </trkpt>
      <trkpt lat="45.33542" lon="5.70255">
        <ele>1876.508374609</ele>
        <time>2014-12-24T15:36:22Z</time>
      </trkpt>
      <trkpt lat="45.33536" lon="5.70266">
        <ele>1884.425545213</ele>
        <time>2014-12-24T15:37:05Z</time>
      </trkpt>
      <trkpt lat="45.33536" lon="5.70268">
        <ele>1884.425545213</ele>
        <time>2014-12-24T15:38:08Z</time>
      </trkpt>
      <trkpt lat="45.33523" lon="5.70264">
        <ele>1892.524801362</ele>
        <time>2014-12-24T15:39:05Z</time>
      </trkpt>
      <trkpt lat="45.33523" lon="5.70262">
        <ele>1892.524801362</ele>
        <time>2014-12-24T15:39:53Z</time>
      </trkpt>
      <trkpt lat="45.33509" lon="5.70243">
        <ele>1900.363862132</ele>
        <time>2014-12-24T15:40:18Z</time>
      </trkpt>
      <trkpt lat="45.33509" lon="5.70243">
        <ele>1900.363862132</ele>
        <time>2014-12-24T15:40:23Z</time>
      </trkpt>
      <trkpt lat="45.33509" lon="5.70243">
        <ele>1900.363862132</ele>
        <time>2014-12-24T15:40:30Z</time>
      </trkpt>
      <trkpt lat="45.33507" lon="5.70244">
        <ele>1900.363862132</ele>
        <time>2014-12-24T15:40:41Z</time>
      </trkpt>
      <trkpt lat="45.33498" lon="5.70247">
        <ele>1906.957263194</ele>
        <time>2014-12-24T15:40:53Z</time>
      </trkpt>
      <trkpt lat="45.33499" lon="5.70246">
        <ele>1906.957263194</ele>
        <time>2014-12-24T15:41:03Z</time>
      </trkpt>
      <trkpt lat="45.33499" lon="5.70246">
        <ele>1906.957263194</ele>
        <time>2014-12-24T15:41:03Z</time>
      </trkpt>
      <trkpt lat="45.33492" lon="5.70262">
        <ele>1913.26890703</ele>
        <time>2014-12-24T15:41:54Z</time>
      </trkpt>
      <trkpt lat="45.33492" lon="5.70261">
        <ele>1913.26890703</ele>
        <time>2014-12-24T15:41:58Z</time>
      </trkpt>
      <trkpt lat="45.33492" lon="5.70261">
        <ele>1913.26890703</ele>
        <time>2014-12-24T15:42:03Z</time>
      </trkpt>
      <trkpt lat="45.33494" lon="5.70266">
        <ele>1913.26890703</ele>
        <time>2014-12-24T15:42:08Z</time>
      </trkpt>
      <trkpt lat="45.33502" lon="5.70269">
        <ele>1920.192678343</ele>
        <time>2014-12-24T15:42:13Z</time>
      </trkpt>
      <trkpt lat="45.33508" lon="5.70274">
        <ele>1920.192678343</ele>
        <time>2014-12-24T15:42:18Z</time>
      </trkpt>
      <trkpt lat="45.33514" lon="5.7028">
        <ele>1925.528712339</ele>
        <time>2014-12-24T15:42:23Z</time>
      </trkpt>
      <trkpt lat="45.33517" lon="5.7028">
        <ele>1925.528712339</ele>
        <time>2014-12-24T15:42:28Z</time>
      </trkpt>
      <trkpt lat="45.33518" lon="5.7028">
        <ele>1925.528712339</ele>
        <time>2014-12-24T15:42:33Z</time>
      </trkpt>
      <trkpt lat="45.3352" lon="5.70281">
        <ele>1925.528712339</ele>
        <time>2014-12-24T15:42:38Z</time>
      </trkpt>
      <trkpt lat="45.33519" lon="5.70282">
        <ele>1925.528712339</ele>
        <time>2014-12-24T15:42:43Z</time>
      </trkpt>
      <trkpt lat="45.3352" lon="5.70282">
        <ele>1925.528712339</ele>
        <time>2014-12-24T15:42:48Z</time>
      </trkpt>
      <trkpt lat="45.3352" lon="5.70283">
        <ele>1925.528712339</ele>
        <time>2014-12-24T15:42:53Z</time>
      </trkpt>
      <trkpt lat="45.3352" lon="5.70283">
        <ele>1925.528712339</ele>
        <time>2014-12-24T15:42:58Z</time>
      </trkpt>
      <trkpt lat="45.3352" lon="5.70284">
        <ele>1925.528712339</ele>
        <time>2014-12-24T15:43:03Z</time>
      </trkpt>
      <trkpt lat="45.33521" lon="5.70285">
        <ele>1930.990058178</ele>
        <time>2014-12-24T15:43:08Z</time>
      </trkpt>
      <trkpt lat="45.33522" lon="5.70285">
        <ele>1930.990058178</ele>
        <time>2014-12-24T15:43:13Z</time>
      </trkpt>
      <trkpt lat="45.33522" lon="5.70285">
        <ele>1930.990058178</ele>
        <time>2014-12-24T15:43:18Z</time>
      </trkpt>
      <trkpt lat="45.33522" lon="5.70285">
        <ele>1930.990058178</ele>
        <time>2014-12-24T15:43:23Z</time>
      </trkpt>
      <trkpt lat="45.33522" lon="5.70285">
        <ele>1930.990058178</ele>
        <time>2014-12-24T15:43:28Z</time>
      </trkpt>
      <trkpt lat="45.33522" lon="5.70285">
        <ele>1930.990058178</ele>
        <time>2014-12-24T15:43:33Z</time>
      </trkpt>
      <trkpt lat="45.33522" lon="5.70285">
        <ele>1930.990058178</ele>
        <time>2014-12-24T15:43:38Z</time>
      </trkpt>
      <trkpt lat="45.33523" lon="5.70288">
        <ele>1930.990058178</ele>
        <time>2014-12-24T15:43:49Z</time>
      </trkpt>
      <trkpt lat="45.33537" lon="5.70306">
        <ele>1934.416596266</ele>
        <time>2014-12-24T15:43:59Z</time>
      </trkpt>
      <trkpt lat="45.33538" lon="5.70312">
        <ele>1934.416596266</ele>
        <time>2014-12-24T15:44:06Z</time>
      </trkpt>
      <trkpt lat="45.33575" lon="5.70363">
        <ele>1936.406496102</ele>
        <time>2014-12-24T15:45:00Z</time>
      </trkpt>
      <trkpt lat="45.33606" lon="5.70369">
        <ele>1934.49152137</ele>
        <time>2014-12-24T15:46:20Z</time>
      </trkpt>
      <trkpt lat="45.33625" lon="5.704">
        <ele>1930.862946437</ele>
        <time>2014-12-24T15:47:00Z</time>
      </trkpt>
      <trkpt lat="45.33627" lon="5.70401">
        <ele>1930.862946437</ele>
        <time>2014-12-24T15:47:06Z</time>
      </trkpt>
      <trkpt lat="45.33636" lon="5.70416">
        <ele>1925.826262837</ele>
        <time>2014-12-24T15:47:20Z</time>
      </trkpt>
      <trkpt lat="45.33686" lon="5.70471">
        <ele>1919.523995855</ele>
        <time>2014-12-24T15:48:46Z</time>
      </trkpt>
      <trkpt lat="45.33693" lon="5.70507">
        <ele>1913.100078595</ele>
        <time>2014-12-24T15:49:26Z</time>
      </trkpt>
      <trkpt lat="45.33696" lon="5.70513">
        <ele>1913.100078595</ele>
        <time>2014-12-24T15:49:31Z</time>
      </trkpt>
      <trkpt lat="45.337" lon="5.7052">
        <ele>1906.461323636</ele>
        <time>2014-12-24T15:49:35Z</time>
      </trkpt>
      <trkpt lat="45.33748" lon="5.70606">
        <ele>1899.66547937</ele>
        <time>2014-12-24T15:50:54Z</time>
      </trkpt>
      <trkpt lat="45.33752" lon="5.70609">
        <ele>1899.66547937</ele>
        <time>2014-12-24T15:51:00Z</time>
      </trkpt>
      <trkpt lat="45.33757" lon="5.70613">
        <ele>1892.621678401</ele>
        <time>2014-12-24T15:51:06Z</time>
      </trkpt>
      <trkpt lat="45.33785" lon="5.70661">
        <ele>1883.660421771</ele>
        <time>2014-12-24T15:52:53Z</time>
      </trkpt>
      <trkpt lat="45.33791" lon="5.7068">
        <ele>1874.409825546</ele>
        <time>2014-12-24T15:53:09Z</time>
      </trkpt>
      <trkpt lat="45.33799" lon="5.70702">
        <ele>1865.081296208</ele>
        <time>2014-12-24T15:54:06Z</time>
      </trkpt>
      <trkpt lat="45.33819" lon="5.70767">
        <ele>1853.996494413</ele>
        <time>2014-12-24T15:54:51Z</time>
      </trkpt>
      <trkpt lat="45.33821" lon="5.7077">
        <ele>1853.996494413</ele>
        <time>2014-12-24T15:54:55Z</time>
      </trkpt>
      <trkpt lat="45.33824" lon="5.70777">
        <ele>1843.207023185</ele>
        <time>2014-12-24T15:55:01Z</time>
      </trkpt>
      <trkpt lat="45.33825" lon="5.70778">
        <ele>1843.207023185</ele>
        <time>2014-12-24T15:55:05Z</time>
      </trkpt>
      <trkpt lat="45.33826" lon="5.70782">
        <ele>1843.207023185</ele>
        <time>2014-12-24T15:55:10Z</time>
      </trkpt>
      <trkpt lat="45.33826" lon="5.70783">
        <ele>1843.207023185</ele>
        <time>2014-12-24T15:55:15Z</time>
      </trkpt>
      <trkpt lat="45.33816" lon="5.70805">
        <ele>1831.585494375</ele>
        <time>2014-12-24T15:56:37Z</time>
      </trkpt>
      <trkpt lat="45.33815" lon="5.70813">
        <ele>1831.585494375</ele>
        <time>2014-12-24T15:56:38Z</time>
      </trkpt>
      <trkpt lat="45.33807" lon="5.70819">
        <ele>1820.25016385</ele>
        <time>2014-12-24T15:56:56Z</time>
      </trkpt>
      <trkpt lat="45.33806" lon="5.70825">
        <ele>1820.25016385</ele>
        <time>2014-12-24T15:57:00Z</time>
      </trkpt>
      <trkpt lat="45.33809" lon="5.70832">
        <ele>1809.370442409</ele>
        <time>2014-12-24T15:57:05Z</time>
      </trkpt>
      <trkpt lat="45.33813" lon="5.70834">
        <ele>1809.370442409</ele>
        <time>2014-12-24T15:57:11Z</time>
      </trkpt>
      <trkpt lat="45.33813" lon="5.70836">
        <ele>1809.370442409</ele>
        <time>2014-12-24T15:57:15Z</time>
      </trkpt>
      <trkpt lat="45.33812" lon="5.70835">
        <ele>1809.370442409</ele>
        <time>2014-12-24T15:57:20Z</time>
      </trkpt>
      <trkpt lat="45.33811" lon="5.70841">
        <ele>1798.09196508</ele>
        <time>2014-12-24T15:57:24Z</time>
      </trkpt>
      <trkpt lat="45.33811" lon="5.70842">
        <ele>1798.09196508</ele>
        <time>2014-12-24T15:57:32Z</time>
      </trkpt>
      <trkpt lat="45.33809" lon="5.70848">
        <ele>1798.09196508</ele>
        <time>2014-12-24T15:57:45Z</time>
      </trkpt>
      <trkpt lat="45.33808" lon="5.70852">
        <ele>1798.09196508</ele>
        <time>2014-12-24T15:57:51Z</time>
      </trkpt>
      <trkpt lat="45.33805" lon="5.70859">
        <ele>1786.919935514</ele>
        <time>2014-12-24T15:57:56Z</time>
      </trkpt>
      <trkpt lat="45.33798" lon="5.70864">
        <ele>1786.919935514</ele>
        <time>2014-12-24T15:57:59Z</time>
      </trkpt>
      <trkpt lat="45.33795" lon="5.70865">
        <ele>1776.609027697</ele>
        <time>2014-12-24T15:58:06Z</time>
      </trkpt>
      <trkpt lat="45.3378" lon="5.70949">
        <ele>1763.387244455</ele>
        <time>2014-12-24T15:59:05Z</time>
      </trkpt>
      <trkpt lat="45.33763" lon="5.71046">
        <ele>1748.233897393</ele>
        <time>2014-12-24T16:00:00Z</time>
      </trkpt>
      <trkpt lat="45.33758" lon="5.71075">
        <ele>1733.789691662</ele>
        <time>2014-12-24T16:00:09Z</time>
      </trkpt>
      <trkpt lat="45.33738" lon="5.71169">
        <ele>1715.724674878</ele>
        <time>2014-12-24T16:01:07Z</time>
      </trkpt>
      <trkpt lat="45.33673" lon="5.71194">
        <ele>1698.826425517</ele>
        <time>2014-12-24T16:02:05Z</time>
      </trkpt>
      <trkpt lat="45.33672" lon="5.7119">
        <ele>1698.826425517</ele>
        <time>2014-12-24T16:02:11Z</time>
      </trkpt>
      <trkpt lat="45.33664" lon="5.71173">
        <ele>1679.88813032</ele>
        <time>2014-12-24T16:02:13Z</time>
      </trkpt>
      <trkpt lat="45.33532" lon="5.7112">
        <ele>1662.283600813</ele>
        <time>2014-12-24T16:03:44Z</time>
      </trkpt>
      <trkpt lat="45.33533" lon="5.71117">
        <ele>1662.283600813</ele>
        <time>2014-12-24T16:03:48Z</time>
      </trkpt>
      <trkpt lat="45.33533" lon="5.71116">
        <ele>1662.283600813</ele>
        <time>2014-12-24T16:03:53Z</time>
      </trkpt>
      <trkpt lat="45.33533" lon="5.71116">
        <ele>1662.283600813</ele>
        <time>2014-12-24T16:03:58Z</time>
      </trkpt>
      <trkpt lat="45.33533" lon="5.71116">
        <ele>1662.283600813</ele>
        <time>2014-12-24T16:04:03Z</time>
      </trkpt>
      <trkpt lat="45.33533" lon="5.71116">
        <ele>1662.283600813</ele>
        <time>2014-12-24T16:04:08Z</time>
      </trkpt>
      <trkpt lat="45.33533" lon="5.71116">
        <ele>1662.283600813</ele>
        <time>2014-12-24T16:04:13Z</time>
      </trkpt>
      <trkpt lat="45.33533" lon="5.71115">
        <ele>1662.283600813</ele>
        <time>2014-12-24T16:04:22Z</time>
      </trkpt>
      <trkpt lat="45.33486" lon="5.71093">
        <ele>1641.351457111</ele>
        <time>2014-12-24T16:04:44Z</time>
      </trkpt>
      <trkpt lat="45.33386" lon="5.71039">
        <ele>1619.985999985</ele>
        <time>2014-12-24T16:06:03Z</time>
      </trkpt>
      <trkpt lat="45.33365" lon="5.71025">
        <ele>1601.300794514</ele>
        <time>2014-12-24T16:06:26Z</time>
      </trkpt>
      <trkpt lat="45.33226" lon="5.70886">
        <ele>1581.254126867</ele>
        <time>2014-12-24T16:08:05Z</time>
      </trkpt>
      <trkpt lat="45.33144" lon="5.7087">
        <ele>1562.444179473</ele>
        <time>2014-12-24T16:09:07Z</time>
      </trkpt>
      <trkpt lat="45.3313" lon="5.70863">
        <ele>1544.823185036</ele>
        <time>2014-12-24T16:09:08Z</time>
      </trkpt>
      <trkpt lat="45.33094" lon="5.70867">
        <ele>1528.630049478</ele>
        <time>2014-12-24T16:09:43Z</time>
      </trkpt>
      <trkpt lat="45.33094" lon="5.70867">
        <ele>1528.630049478</ele>
        <time>2014-12-24T16:09:48Z</time>
      </trkpt>
      <trkpt lat="45.33094" lon="5.70867">
        <ele>1528.630049478</ele>
        <time>2014-12-24T16:09:53Z</time>
      </trkpt>
      <trkpt lat="45.33094" lon="5.70867">
        <ele>1528.630049478</ele>
        <time>2014-12-24T16:09:58Z</time>
      </trkpt>
      <trkpt lat="45.33094" lon="5.70867">
        <ele>1528.630049478</ele>
        <time>2014-12-24T16:10:03Z</time>
      </trkpt>
      <trkpt lat="45.33094" lon="5.70867">
        <ele>1528.630049478</ele>
        <time>2014-12-24T16:10:08Z</time>
      </trkpt>
      <trkpt lat="45.33094" lon="5.70867">
        <ele>1528.630049478</ele>
        <time>2014-12-24T16:10:13Z</time>
      </trkpt>
      <trkpt lat="45.33055" lon="5.70858">
        <ele>1512.351080673</ele>
        <time>2014-12-24T16:11:09Z</time>
      </trkpt>
      <trkpt lat="45.32939" lon="5.70884">
        <ele>1495.014672112</ele>
        <time>2014-12-24T16:12:26Z</time>
      </trkpt>
      <trkpt lat="45.32887" lon="5.70864">
        <ele>1478.171795014</ele>
        <time>2014-12-24T16:12:50Z</time>
      </trkpt>
      <trkpt lat="45.32868" lon="5.70876">
        <ele>1463.11237516</ele>
        <time>2014-12-24T16:13:05Z</time>
      </trkpt>
      <trkpt lat="45.32867" lon="5.70877">
        <ele>1463.11237516</ele>
        <time>2014-12-24T16:13:10Z</time>
      </trkpt>
      <trkpt lat="45.32869" lon="5.70874">
        <ele>1463.11237516</ele>
        <time>2014-12-24T16:13:13Z</time>
      </trkpt>
      <trkpt lat="45.32869" lon="5.70873">
        <ele>1463.11237516</ele>
        <time>2014-12-24T16:13:18Z</time>
      </trkpt>
      <trkpt lat="45.32869" lon="5.70873">
        <ele>1463.11237516</ele>
        <time>2014-12-24T16:13:23Z</time>
      </trkpt>
      <trkpt lat="45.32869" lon="5.70873">
        <ele>1463.11237516</ele>
        <time>2014-12-24T16:13:34Z</time>
      </trkpt>
      <trkpt lat="45.3287" lon="5.70824">
        <ele>1448.28688962</ele>
        <time>2014-12-24T16:13:54Z</time>
      </trkpt>
      <trkpt lat="45.32844" lon="5.70729">
        <ele>1433.698569157</ele>
        <time>2014-12-24T16:15:00Z</time>
      </trkpt>
      <trkpt lat="45.32847" lon="5.70726">
        <ele>1433.698569157</ele>
        <time>2014-12-24T16:15:09Z</time>
      </trkpt>
      <trkpt lat="45.32847" lon="5.70712">
        <ele>1419.204153974</ele>
        <time>2014-12-24T16:15:23Z</time>
      </trkpt>
      <trkpt lat="45.32836" lon="5.70681">
        <ele>1405.966227265</ele>
        <time>2014-12-24T16:16:06Z</time>
      </trkpt>
      <trkpt lat="45.32799" lon="5.70571">
        <ele>1388.283854374</ele>
        <time>2014-12-24T16:18:06Z</time>
      </trkpt>
      <trkpt lat="45.32757" lon="5.70486">
        <ele>1368.235708469</ele>
        <time>2014-12-24T16:20:05Z</time>
      </trkpt>
      <trkpt lat="45.32729" lon="5.70351">
        <ele>1348.185453772</ele>
        <time>2014-12-24T16:21:06Z</time>
      </trkpt>
      <trkpt lat="45.32691" lon="5.70274">
        <ele>1329.745430368</ele>
        <time>2014-12-24T16:21:30Z</time>
      </trkpt>
      <trkpt lat="45.32684" lon="5.70263">
        <ele>1312.818569493</ele>
        <time>2014-12-24T16:21:35Z</time>
      </trkpt>
      <trkpt lat="45.32674" lon="5.702">
        <ele>1296.877157847</ele>
        <time>2014-12-24T16:22:06Z</time>
      </trkpt>
      <trkpt lat="45.32672" lon="5.70197">
        <ele>1296.877157847</ele>
        <time>2014-12-24T16:22:11Z</time>
      </trkpt>
      <trkpt lat="45.32674" lon="5.70154">
        <ele>1283.589997877</ele>
        <time>2014-12-24T16:22:35Z</time>
      </trkpt>
      <trkpt lat="45.32667" lon="5.69868">
        <ele>1270.603757687</ele>
        <time>2014-12-24T16:24:20Z</time>
      </trkpt>
      <trkpt lat="45.32715" lon="5.69779">
        <ele>1257.753659093</ele>
        <time>2014-12-24T16:24:55Z</time>
      </trkpt>
      <trkpt lat="45.32691" lon="5.69604">
        <ele>1244.885683759</ele>
        <time>2014-12-24T16:26:06Z</time>
      </trkpt>
      <trkpt lat="45.32721" lon="5.69476">
        <ele>1233.153289548</ele>
        <time>2014-12-24T16:26:35Z</time>
      </trkpt>
      <trkpt lat="45.32729" lon="5.69436">
        <ele>1222.756536471</ele>
        <time>2014-12-24T16:26:55Z</time>
      </trkpt>
      <trkpt lat="45.32725" lon="5.69428">
        <ele>1222.756536471</ele>
        <time>2014-12-24T16:27:00Z</time>
      </trkpt>
      <trkpt lat="45.32723" lon="5.69422">
        <ele>1213.732196415</ele>
        <time>2014-12-24T16:27:09Z</time>
      </trkpt>
      <trkpt lat="45.32701" lon="5.69366">
        <ele>1208.559734823</ele>
        <time>2014-12-24T16:27:43Z</time>
      </trkpt>
      <trkpt lat="45.32696" lon="5.69341">
        <ele>1202.463673721</ele>
        <time>2014-12-24T16:27:50Z</time>
      </trkpt>
      <trkpt lat="45.32697" lon="5.69332">
        <ele>1202.463673721</ele>
        <time>2014-12-24T16:28:00Z</time>
      </trkpt>
      <trkpt lat="45.32652" lon="5.69276">
        <ele>1196.065370002</ele>
        <time>2014-12-24T16:29:06Z</time>
      </trkpt>
      <trkpt lat="45.32649" lon="5.69297">
        <ele>1191.238037109</ele>
        <time>2014-12-24T16:29:10Z</time>
      </trkpt>
      <trkpt lat="45.32544" lon="5.69464">
        <ele>1185.101070799</ele>
        <time>2014-12-24T16:31:06Z</time>
      </trkpt>
      <trkpt lat="45.32543" lon="5.69462">
        <ele>1185.101070799</ele>
        <time>2014-12-24T16:31:09Z</time>
      </trkpt>
      <trkpt lat="45.32543" lon="5.69461">
        <ele>1185.101070799</ele>
        <time>2014-12-24T16:31:13Z</time>
      </trkpt>
      <trkpt lat="45.32543" lon="5.69461">
        <ele>1185.101070799</ele>
        <time>2014-12-24T16:31:18Z</time>
      </trkpt>
      <trkpt lat="45.32544" lon="5.6946">
        <ele>1185.101070799</ele>
        <time>2014-12-24T16:31:23Z</time>
      </trkpt>
      <trkpt lat="45.32541" lon="5.69462">
        <ele>1185.101070799</ele>
        <time>2014-12-24T16:31:28Z</time>
      </trkpt>
      <trkpt lat="45.32542" lon="5.69461">
        <ele>1185.101070799</ele>
        <time>2014-12-24T16:31:33Z</time>
      </trkpt>
      <trkpt lat="45.32543" lon="5.69461">
        <ele>1185.101070799</ele>
        <time>2014-12-24T16:31:38Z</time>
      </trkpt>
      <trkpt lat="45.32543" lon="5.69461">
        <ele>1185.101070799</ele>
        <time>2014-12-24T16:31:43Z</time>
      </trkpt>
      <trkpt lat="45.32543" lon="5.69463">
        <ele>1179.888773428</ele>
        <time>2014-12-24T16:31:48Z</time>
      </trkpt>
      <trkpt lat="45.32543" lon="5.69463">
        <ele>1179.888773428</ele>
        <time>2014-12-24T16:31:53Z</time>
      </trkpt>
      <trkpt lat="45.32543" lon="5.69464">
        <ele>1179.888773428</ele>
        <time>2014-12-24T16:31:58Z</time>
      </trkpt>
      <trkpt lat="45.32543" lon="5.69464">
        <ele>1179.888773428</ele>
        <time>2014-12-24T16:32:03Z</time>
      </trkpt>
      <trkpt lat="45.32543" lon="5.69463">
        <ele>1179.888773428</ele>
        <time>2014-12-24T16:32:08Z</time>
      </trkpt>
      <trkpt lat="45.32543" lon="5.69463">
        <ele>1179.888773428</ele>
        <time>2014-12-24T16:32:13Z</time>
      </trkpt>
      <trkpt lat="45.32543" lon="5.69464">
        <ele>1179.888773428</ele>
        <time>2014-12-24T16:32:21Z</time>
      </trkpt>
      <trkpt lat="45.32555" lon="5.69483">
        <ele>1175.218767645</ele>
        <time>2014-12-24T16:32:33Z</time>
      </trkpt>
      <trkpt lat="45.32559" lon="5.69491">
        <ele>1175.218767645</ele>
        <time>2014-12-24T16:32:45Z</time>
      </trkpt>
      <trkpt lat="45.32575" lon="5.69519">
        <ele>1172.320489315</ele>
        <time>2014-12-24T16:32:55Z</time>
      </trkpt>
      <trkpt lat="45.32589" lon="5.69525">
        <ele>1169.590085563</ele>
        <time>2014-12-24T16:33:06Z</time>
      </trkpt>
      <trkpt lat="45.326" lon="5.69506">
        <ele>1166.838242741</ele>
        <time>2014-12-24T16:33:19Z</time>
      </trkpt>
      <trkpt lat="45.326" lon="5.69505">
        <ele>1166.838242741</ele>
        <time>2014-12-24T16:33:29Z</time>
      </trkpt>
      <trkpt lat="45.32619" lon="5.69465">
        <ele>1164.322221524</ele>
        <time>2014-12-24T16:33:46Z</time>
      </trkpt>
      <trkpt lat="45.32626" lon="5.69443">
        <ele>1163.432966956</ele>
        <time>2014-12-24T16:34:00Z</time>
      </trkpt>
      <trkpt lat="45.32642" lon="5.69383">
        <ele>1165.743341789</ele>
        <time>2014-12-24T16:34:23Z</time>
      </trkpt>
      <trkpt lat="45.32642" lon="5.69381">
        <ele>1165.743341789</ele>
        <time>2014-12-24T16:34:32Z</time>
      </trkpt>
      <trkpt lat="45.32656" lon="5.69284">
        <ele>1170.108213398</ele>
        <time>2014-12-24T16:35:05Z</time>
      </trkpt>
      <trkpt lat="45.32668" lon="5.69202">
        <ele>1177.334870741</ele>
        <time>2014-12-24T16:36:06Z</time>
      </trkpt>
      <trkpt lat="45.32666" lon="5.69176">
        <ele>1185.137660585</ele>
        <time>2014-12-24T16:36:08Z</time>
      </trkpt>
      <trkpt lat="45.32694" lon="5.68902">
        <ele>1187.79526089</ele>
        <time>2014-12-24T16:38:33Z</time>
      </trkpt>
      <trkpt lat="45.32697" lon="5.68895">
        <ele>1187.79526089</ele>
        <time>2014-12-24T16:38:38Z</time>
      </trkpt>
      <trkpt lat="45.32697" lon="5.68892">
        <ele>1187.79526089</ele>
        <time>2014-12-24T16:38:43Z</time>
      </trkpt>
      <trkpt lat="45.32697" lon="5.68891">
        <ele>1187.79526089</ele>
        <time>2014-12-24T16:38:48Z</time>
      </trkpt>
      <trkpt lat="45.32697" lon="5.6889">
        <ele>1191.694992138</ele>
        <time>2014-12-24T16:38:56Z</time>
      </trkpt>
      <trkpt lat="45.32697" lon="5.68875">
        <ele>1196.555703215</ele>
        <time>2014-12-24T16:39:00Z</time>
      </trkpt>
      <trkpt lat="45.32718" lon="5.68815">
        <ele>1200.818268805</ele>
        <time>2014-12-24T16:39:31Z</time>
      </trkpt>
      <trkpt lat="45.32754" lon="5.68738">
        <ele>1204.48200884</ele>
        <time>2014-12-24T16:40:05Z</time>
      </trkpt>
      <trkpt lat="45.32742" lon="5.68654">
        <ele>1202.93757803</ele>
        <time>2014-12-24T16:41:05Z</time>
      </trkpt>
      <trkpt lat="45.32756" lon="5.68588">
        <ele>1199.856139854</ele>
        <time>2014-12-24T16:41:57Z</time>
      </trkpt>
      <trkpt lat="45.32763" lon="5.68569">
        <ele>1197.491786014</ele>
        <time>2014-12-24T16:42:10Z</time>
      </trkpt>
      <trkpt lat="45.32772" lon="5.68435">
        <ele>1193.464736443</ele>
        <time>2014-12-24T16:42:51Z</time>
      </trkpt>
      <trkpt lat="45.32759" lon="5.68414">
        <ele>1190.619725796</ele>
        <time>2014-12-24T16:43:01Z</time>
      </trkpt>
      <trkpt lat="45.32759" lon="5.68414">
        <ele>1190.619725796</ele>
        <time>2014-12-24T16:43:06Z</time>
      </trkpt>
      <trkpt lat="45.32759" lon="5.68414">
        <ele>1190.619725796</ele>
        <time>2014-12-24T16:43:10Z</time>
      </trkpt>
      <trkpt lat="45.32757" lon="5.68412">
        <ele>1190.619725796</ele>
        <time>2014-12-24T16:43:15Z</time>
      </trkpt>
      <trkpt lat="45.32758" lon="5.68405">
        <ele>1190.619725796</ele>
        <time>2014-12-24T16:43:25Z</time>
      </trkpt>
      <trkpt lat="45.32756" lon="5.68403">
        <ele>1187.699308894</ele>
        <time>2014-12-24T16:43:31Z</time>
      </trkpt>
      <trkpt lat="45.32758" lon="5.68386">
        <ele>1184.260255473</ele>
        <time>2014-12-24T16:43:43Z</time>
      </trkpt>
      <trkpt lat="45.32765" lon="5.68379">
        <ele>1184.260255473</ele>
        <time>2014-12-24T16:44:10Z</time>
      </trkpt>
      <trkpt lat="45.32802" lon="5.68342">
        <ele>1177.87682923</ele>
        <time>2014-12-24T16:45:10Z</time>
      </trkpt>
      <trkpt lat="45.32772" lon="5.68307">
        <ele>1170.201738067</ele>
        <time>2014-12-24T16:46:10Z</time>
      </trkpt>
      <trkpt lat="45.32805" lon="5.68258">
        <ele>1159.744502091</ele>
        <time>2014-12-24T16:47:06Z</time>
      </trkpt>
      <trkpt lat="45.32815" lon="5.68242">
        <ele>1149.600242092</ele>
        <time>2014-12-24T16:47:19Z</time>
      </trkpt>
      <trkpt lat="45.32855" lon="5.6824">
        <ele>1137.736833091</ele>
        <time>2014-12-24T16:48:06Z</time>
      </trkpt>
      <trkpt lat="45.32911" lon="5.68169">
        <ele>1122.42104702</ele>
        <time>2014-12-24T16:49:05Z</time>
      </trkpt>
      <trkpt lat="45.32966" lon="5.6814">
        <ele>1106.812915346</ele>
        <time>2014-12-24T16:50:03Z</time>
      </trkpt>
      <trkpt lat="45.32966" lon="5.6814">
        <ele>1106.812915346</ele>
        <time>2014-12-24T16:50:13Z</time>
      </trkpt>
      <trkpt lat="45.33019" lon="5.68162">
        <ele>1088.365405715</ele>
        <time>2014-12-24T16:51:08Z</time>
      </trkpt>
      <trkpt lat="45.33022" lon="5.68161">
        <ele>1088.365405715</ele>
        <time>2014-12-24T16:51:13Z</time>
      </trkpt>
      <trkpt lat="45.33022" lon="5.68161">
        <ele>1088.365405715</ele>
        <time>2014-12-24T16:51:18Z</time>
      </trkpt>
      <trkpt lat="45.33022" lon="5.68161">
        <ele>1088.365405715</ele>
        <time>2014-12-24T16:51:23Z</time>
      </trkpt>
      <trkpt lat="45.33022" lon="5.68161">
        <ele>1088.365405715</ele>
        <time>2014-12-24T16:51:28Z</time>
      </trkpt>
      <trkpt lat="45.33022" lon="5.6816">
        <ele>1088.365405715</ele>
        <time>2014-12-24T16:51:33Z</time>
      </trkpt>
      <trkpt lat="45.33034" lon="5.68126">
        <ele>1070.347248887</ele>
        <time>2014-12-24T16:51:58Z</time>
      </trkpt>
      <trkpt lat="45.33034" lon="5.68125">
        <ele>1070.347248887</ele>
        <time>2014-12-24T16:52:06Z</time>
      </trkpt>
      <trkpt lat="45.33024" lon="5.68075">
        <ele>1050.886310285</ele>
        <time>2014-12-24T16:53:06Z</time>
      </trkpt>
      <trkpt lat="45.32984" lon="5.68059">
        <ele>1031.134369763</ele>
        <time>2014-12-24T16:54:06Z</time>
      </trkpt>
      <trkpt lat="45.32977" lon="5.6806">
        <ele>1031.134369763</ele>
        <time>2014-12-24T16:54:10Z</time>
      </trkpt>
      <trkpt lat="45.3297" lon="5.68054">
        <ele>1012.879973005</ele>
        <time>2014-12-24T16:54:16Z</time>
      </trkpt>
      <trkpt lat="45.3295" lon="5.68037">
        <ele>993.88497191</ele>
        <time>2014-12-24T16:55:09Z</time>
      </trkpt>
      <trkpt lat="45.32958" lon="5.68018">
        <ele>975.968506385</ele>
        <time>2014-12-24T16:55:23Z</time>
      </trkpt>
      <trkpt lat="45.32957" lon="5.68016">
        <ele>975.968506385</ele>
        <time>2014-12-24T16:55:28Z</time>
      </trkpt>
      <trkpt lat="45.32957" lon="5.68016">
        <ele>975.968506385</ele>
        <time>2014-12-24T16:55:33Z</time>
      </trkpt>
      <trkpt lat="45.32957" lon="5.68016">
        <ele>975.968506385</ele>
        <time>2014-12-24T16:55:38Z</time>
      </trkpt>
      <trkpt lat="45.32957" lon="5.68016">
        <ele>975.968506385</ele>
        <time>2014-12-24T16:55:43Z</time>
      </trkpt>
      <trkpt lat="45.32957" lon="5.68016">
        <ele>975.968506385</ele>
        <time>2014-12-24T16:55:52Z</time>
      </trkpt>
      <trkpt lat="45.3296" lon="5.68013">
        <ele>975.968506385</ele>
        <time>2014-12-24T16:55:54Z</time>
      </trkpt>
      <trkpt lat="45.32967" lon="5.68009">
        <ele>958.651099376</ele>
        <time>2014-12-24T16:56:01Z</time>
      </trkpt>
      <trkpt lat="45.32965" lon="5.67995">
        <ele>942.639340421</ele>
        <time>2014-12-24T16:56:20Z</time>
      </trkpt>
      <trkpt lat="45.32963" lon="5.67989">
        <ele>942.639340421</ele>
        <time>2014-12-24T16:56:30Z</time>
      </trkpt>
      <trkpt lat="45.32925" lon="5.67995">
        <ele>927.863270104</ele>
        <time>2014-12-24T16:56:58Z</time>
      </trkpt>
      <trkpt lat="45.32934" lon="5.67985">
        <ele>913.965908641</ele>
        <time>2014-12-24T16:57:09Z</time>
      </trkpt>
      <trkpt lat="45.32919" lon="5.67963">
        <ele>898.595971162</ele>
        <time>2014-12-24T16:57:45Z</time>
      </trkpt>
      <trkpt lat="45.32918" lon="5.67956">
        <ele>898.595971162</ele>
        <time>2014-12-24T16:57:53Z</time>
      </trkpt>
      <trkpt lat="45.32907" lon="5.6795">
        <ele>884.766497135</ele>
        <time>2014-12-24T16:58:08Z</time>
      </trkpt>
      <trkpt lat="45.32904" lon="5.67953">
        <ele>884.766497135</ele>
        <time>2014-12-24T16:58:10Z</time>
      </trkpt>
      <trkpt lat="45.329" lon="5.67955">
        <ele>884.766497135</ele>
        <time>2014-12-24T16:58:15Z</time>
      </trkpt>
      <trkpt lat="45.32889" lon="5.67963">
        <ele>871.949761316</ele>
        <time>2014-12-24T16:58:29Z</time>
      </trkpt>
      <trkpt lat="45.32831" lon="5.67969">
        <ele>859.22106829</ele>
        <time>2014-12-24T16:59:06Z</time>
      </trkpt>
      <trkpt lat="45.32767" lon="5.6796">
        <ele>843.849385622</ele>
        <time>2014-12-24T17:00:06Z</time>
      </trkpt>
      <trkpt lat="45.32714" lon="5.67945">
        <ele>827.490357777</ele>
        <time>2014-12-24T17:01:10Z</time>
      </trkpt>
      <trkpt lat="45.327" lon="5.67904">
        <ele>810.094958738</ele>
        <time>2014-12-24T17:02:10Z</time>
      </trkpt>
      <trkpt lat="45.32581" lon="5.67957">
        <ele>790.899498299</ele>
        <time>2014-12-24T17:03:08Z</time>
      </trkpt>
      <trkpt lat="45.32585" lon="5.67931">
        <ele>773.956462642</ele>
        <time>2014-12-24T17:03:48Z</time>
      </trkpt>
    </trkseg>
  </trk>
</gpx>